Time;durP1;ratioP1;P1;durP2;ratioP2;P2;SDS_P1;SDS_P2;PMS_P1;PMS_P2;Temp;Humidity;BMP_temperature;BMP_pressure;BME280_temperature;BME280_humidity;BME280_pressure;Samples;Min_cycle;Max_cycle;Signal;HPM_P1;HPM_P2
2022/04/04 00:01:09;;;;;;;5.17;1.83;;;1.00;99.90;0.10;99562;;;;585702;244;24049;-80
2022/04/04 00:03:37;;;;;;;4.60;2.03;;;1.10;99.90;0.20;99552;;;;576709;244;24097;-77
2022/04/04 00:06:06;;;;;;;3.60;1.97;;;1.30;99.90;0.30;99549;;;;575782;245;24086;-80
2022/04/04 00:08:34;;;;;;;6.30;2.37;;;1.30;99.90;0.40;99547;;;;589867;243;26421;-79
2022/04/04 00:11:02;;;;;;;2.67;2.13;;;1.40;99.90;0.50;99548;;;;580457;242;24064;-84
2022/04/04 00:13:30;;;;;;;3.03;1.83;;;1.50;99.90;0.50;99535;;;;579991;247;24132;-80
2022/04/04 00:15:58;;;;;;;2.83;1.77;;;1.50;99.90;0.50;99540;;;;573670;246;24075;-79
2022/04/04 00:18:26;;;;;;;3.13;2.27;;;1.50;99.90;0.50;99527;;;;573110;246;24094;-80
2022/04/04 00:20:53;;;;;;;2.50;1.83;;;1.50;99.90;0.40;99526;;;;573246;246;24168;-81
2022/04/04 00:23:21;;;;;;;2.83;1.83;;;1.50;99.90;0.40;99523;;;;573122;246;24153;-79
2022/04/04 00:25:49;;;;;;;2.43;1.60;;;1.40;99.90;0.30;99522;;;;573496;246;24110;-83
2022/04/04 00:28:17;;;;;;;2.63;1.97;;;1.30;99.90;0.20;99510;;;;573523;246;24074;-85
2022/04/04 00:30:45;;;;;;;2.10;1.73;;;1.30;99.90;0.20;99510;;;;573558;246;24082;-81
2022/04/04 00:33:13;;;;;;;2.33;1.80;;;1.20;99.90;0.10;99501;;;;573371;246;24082;-81
2022/04/04 00:35:41;;;;;;;2.77;1.80;;;1.20;99.90;0.20;99495;;;;573122;246;24135;-81
2022/04/04 00:38:10;;;;;;;3.03;1.70;;;1.20;99.90;0.20;99497;;;;573098;246;24126;-81
2022/04/04 00:40:40;;;;;;;2.97;1.93;;;1.20;99.90;0.20;99489;;;;573011;246;24104;-79
2022/04/04 00:43:05;;;;;;;4.13;2.80;;;1.20;99.90;0.20;99487;;;;572858;246;24156;-81
2022/04/04 00:45:33;;;;;;;3.77;2.20;;;1.20;99.90;0.10;99473;;;;575905;245;24124;-81
2022/04/04 00:48:01;;;;;;;1.80;1.70;;;1.10;99.90;0.00;99465;;;;577025;245;24102;-80
2022/04/04 00:50:29;;;;;;;1.70;1.60;;;1.00;99.90;0.00;99464;;;;567689;249;24098;-79
2022/04/04 00:52:58;;;;;;;1.73;1.60;;;1.00;99.90;0.00;99461;;;;567638;249;24084;-81
2022/04/04 00:55:25;;;;;;;1.97;1.67;;;1.00;99.90;0.00;99477;;;;569317;247;24057;-82
2022/04/04 00:57:53;;;;;;;7.10;1.63;;;1.00;99.90;0.10;99468;;;;587777;242;24107;-81
2022/04/04 01:00:21;;;;;;;3.07;2.00;;;1.10;99.90;0.20;99456;;;;572761;247;24151;-80
2022/04/04 01:02:49;;;;;;;1.80;1.70;;;1.20;99.90;0.30;99458;;;;584042;242;24058;-82
2022/04/04 01:05:18;;;;;;;1.30;1.20;;;1.30;99.90;0.40;99441;;;;576107;246;24077;-81
2022/04/04 01:07:46;;;;;;;3.67;1.70;;;1.40;99.90;0.50;99442;;;;584120;242;24041;-83
2022/04/04 01:10:14;;;;;;;2.37;1.70;;;1.50;99.90;0.50;99443;;;;577504;245;24136;-81
2022/04/04 01:12:55;;;;;;;1.33;1.27;;;1.60;99.90;0.60;99461;;;;585009;242;24165;-81
2022/04/04 01:15:23;;;;;;;2.57;1.90;;;1.60;99.90;0.60;99448;;;;576959;245;24111;-80
2022/04/04 01:17:50;;;;;;;4.33;1.87;;;1.60;99.90;0.70;99446;;;;584968;242;24056;-81
2022/04/04 01:20:18;;;;;;;3.30;2.17;;;1.70;99.90;0.80;99442;;;;576470;245;24136;-80
2022/04/04 01:22:47;;;;;;;2.10;1.90;;;1.80;99.90;0.80;99440;;;;584337;242;24048;-82
2022/04/04 01:25:18;;;;;;;2.83;1.70;;;1.80;99.90;0.90;99431;;;;576209;245;24119;-82
2022/04/04 01:27:48;;;;;;;2.90;2.30;;;1.90;99.90;0.90;99439;;;;587281;242;24033;-80
2022/04/04 01:30:13;;;;;;;2.43;2.20;;;1.90;99.90;1.00;99425;;;;575863;245;24105;-79
2022/04/04 01:32:41;;;;;;;3.13;2.27;;;2.00;99.90;1.00;99420;;;;584490;241;24081;-81
2022/04/04 01:35:13;;;;;;;1.90;1.73;;;2.00;99.90;1.00;99428;;;;586515;242;24075;-82
2022/04/04 01:37:40;;;;;;;2.73;2.10;;;2.00;99.90;0.90;99425;;;;573657;247;24070;-81
2022/04/04 01:40:06;;;;;;;2.43;2.23;;;2.00;99.90;0.80;99416;;;;576911;246;24116;-82
2022/04/04 01:42:37;;;;;;;2.67;2.47;;;1.90;99.90;0.70;99425;;;;570237;247;24095;-79
2022/04/04 01:45:01;;;;;;;2.40;2.10;;;1.80;99.90;0.60;99408;;;;581334;247;24126;-80
2022/04/04 01:47:29;;;;;;;2.63;2.43;;;1.70;99.90;0.60;99405;;;;575958;246;24142;-80
2022/04/04 01:49:57;;;;;;;2.53;2.30;;;1.70;99.90;0.60;99405;;;;581154;243;24079;-81
2022/04/04 01:52:25;;;;;;;2.37;2.17;;;1.70;99.90;0.60;99405;;;;582637;243;24474;-81
2022/04/04 01:54:55;;;;;;;6.80;2.80;;;1.60;99.90;0.60;99400;;;;582937;243;24101;-79
2022/04/04 01:57:21;;;;;;;2.80;2.03;;;1.60;99.90;0.60;99387;;;;582948;243;24180;-84
2022/04/04 01:59:48;;;;;;;2.97;2.77;;;1.70;99.90;0.70;99385;;;;583330;243;24058;-84
2022/04/04 02:02:20;;;;;;;4.37;2.87;;;1.70;99.90;0.70;99377;;;;583116;243;24119;-81
2022/04/04 02:04:45;;;;;;;3.07;2.57;;;1.70;99.90;0.80;99382;;;;582777;243;24086;-81
2022/04/04 02:07:14;;;;;;;3.03;2.80;;;1.80;99.90;0.80;99387;;;;578703;244;24148;-83
2022/04/04 02:09:42;;;;;;;3.43;3.10;;;1.80;99.90;0.80;99385;;;;579855;244;24133;-84
2022/04/04 02:12:11;;;;;;;6.68;6.07;;;1.80;99.90;0.90;99379;;;;574917;244;35139;-82
2022/04/04 02:14:41;;;;;;;4.87;4.03;;;1.90;99.90;0.90;99375;;;;579871;244;24144;-84
2022/04/04 02:17:05;;;;;;;2.90;2.57;;;1.90;99.90;0.90;99369;;;;581582;244;24084;-83
2022/04/04 02:19:34;;;;;;;3.60;3.30;;;2.00;99.90;1.00;99366;;;;576923;244;24111;-84
2022/04/04 02:22:02;;;;;;;3.80;3.40;;;2.00;99.90;0.90;99374;;;;581321;243;24067;-84
2022/04/04 02:24:30;;;;;;;4.03;3.10;;;2.00;99.90;0.90;99364;;;;581057;243;24070;-81
2022/04/04 02:26:58;;;;;;;2.80;2.10;;;1.90;99.90;0.90;99369;;;;581085;243;24054;-80
2022/04/04 02:29:26;;;;;;;5.10;3.27;;;1.90;99.90;0.90;99359;;;;581184;243;24103;-81
2022/04/04 02:31:54;;;;;;;6.13;3.30;;;1.90;99.90;0.90;99364;;;;581156;243;24068;-81
2022/04/04 02:34:22;;;;;;;3.60;3.23;;;1.90;99.90;0.90;99359;;;;580819;243;24112;-82
2022/04/04 02:36:50;;;;;;;3.97;3.20;;;2.00;99.90;1.00;99354;;;;580824;243;24043;-80
2022/04/04 02:39:18;;;;;;;3.37;3.07;;;2.00;99.90;1.00;99356;;;;580725;243;24089;-80
2022/04/04 02:41:46;;;;;;;3.50;3.20;;;2.00;99.90;1.10;99355;;;;580707;243;25097;-80
2022/04/04 02:44:14;;;;;;;5.23;3.53;;;2.10;99.90;1.10;99345;;;;580871;243;24120;-83
2022/04/04 02:46:42;;;;;;;4.93;4.00;;;2.10;99.90;1.20;99347;;;;580466;243;24055;-84
2022/04/04 02:49:10;;;;;;;3.00;2.70;;;2.20;99.90;1.20;99338;;;;580700;243;24172;-85
2022/04/04 02:51:40;;;;;;;4.80;3.63;;;2.20;99.90;1.20;99333;;;;580300;243;24057;-83
2022/04/04 02:54:05;;;;;;;4.23;3.30;;;2.20;99.90;1.10;99333;;;;586362;243;24109;-84
2022/04/04 02:56:34;;;;;;;4.07;3.43;;;2.20;99.90;1.10;99334;;;;580298;244;24088;-86
2022/04/04 02:59:05;;;;;;;4.17;3.67;;;2.20;99.90;1.20;99332;;;;579925;244;24068;-83
2022/04/04 03:01:33;;;;;;;4.10;3.50;;;2.20;99.90;1.20;99333;;;;576744;244;24108;-80
2022/04/04 03:04:00;;;;;;;4.27;3.00;;;2.20;99.90;1.20;99324;;;;579407;244;24125;-80
2022/04/04 03:06:28;;;;;;;4.03;3.27;;;2.30;99.90;1.30;99330;;;;579302;244;24122;-78
2022/04/04 03:08:53;;;;;;;6.50;2.80;;;2.30;99.90;1.30;99325;;;;579446;244;24098;-80
2022/04/04 03:11:21;;;;;;;4.47;3.20;;;2.30;99.90;1.40;99321;;;;579975;244;24075;-81
2022/04/04 03:13:50;;;;;;;4.10;2.93;;;2.30;99.90;1.40;99317;;;;579575;242;24529;-79
2022/04/04 03:16:20;;;;;;;6.30;3.27;;;2.40;99.90;1.40;99318;;;;573589;247;24119;-80
2022/04/04 03:18:45;;;;;;;3.53;3.23;;;2.40;99.90;1.40;99320;;;;560348;252;24139;-78
2022/04/04 03:21:13;;;;;;;3.97;2.83;;;2.50;99.90;1.50;99316;;;;560541;252;24163;-80
2022/04/04 03:23:45;;;;;;;8.87;3.03;;;2.50;99.90;1.50;99312;;;;560481;252;24145;-81
2022/04/04 03:26:09;;;;;;;5.77;3.33;;;2.50;99.90;1.50;99300;;;;560138;252;24150;-80
2022/04/04 03:28:37;;;;;;;3.30;3.00;;;2.50;99.90;1.50;99306;;;;556514;252;24180;-80
2022/04/04 03:31:05;;;;;;;2.97;2.17;;;2.50;99.90;1.50;99296;;;;560945;252;24155;-81
2022/04/04 03:33:36;;;;;;;4.83;2.70;;;2.50;99.90;1.40;99294;;;;562246;251;24195;-79
2022/04/04 03:36:03;;;;;;;3.47;2.57;;;2.50;99.90;1.40;99294;;;;557377;252;24135;-80
2022/04/04 03:38:31;;;;;;;3.33;2.50;;;2.50;99.90;1.40;99289;;;;562527;252;24239;-79
2022/04/04 03:40:59;;;;;;;4.93;2.47;;;2.40;99.90;1.40;99285;;;;557187;252;24186;-81
2022/04/04 03:43:27;;;;;;;3.70;3.00;;;2.40;99.90;1.40;99278;;;;572067;246;24075;-81
2022/04/04 03:45:55;;;;;;;4.80;3.00;;;2.40;99.90;1.40;99279;;;;572721;251;24140;-82
2022/04/04 03:48:24;;;;;;;2.80;2.50;;;2.40;99.90;1.40;99273;;;;565025;251;24098;-82
2022/04/04 03:50:54;;;;;;;4.00;2.40;;;2.40;99.90;1.40;99270;;;;560821;252;24119;-81
2022/04/04 03:53:21;;;;;;;2.47;2.17;;;2.40;99.90;1.40;99263;;;;560918;252;24157;-81
2022/04/04 03:55:50;;;;;;;3.00;2.03;;;2.40;99.90;1.40;99267;;;;560953;252;24169;-81
2022/04/04 03:58:16;;;;;;;8.90;2.63;;;2.30;99.90;1.40;99259;;;;556636;252;24184;-81
2022/04/04 04:00:44;;;;;;;6.07;2.70;;;2.40;99.90;1.50;99262;;;;565131;252;24189;-82
2022/04/04 04:03:12;;;;;;;4.93;2.83;;;2.40;99.90;1.50;99259;;;;561039;252;24152;-80
2022/04/04 04:05:41;;;;;;;3.03;2.40;;;2.50;99.90;1.60;99257;;;;572129;246;24104;-79
2022/04/04 04:08:09;;;;;;;2.80;2.60;;;2.50;99.90;1.60;99252;;;;571556;246;24131;-81
2022/04/04 04:10:37;;;;;;;3.27;2.73;;;2.60;99.90;1.60;99245;;;;572923;246;25166;-81
2022/04/04 04:13:05;;;;;;;2.67;2.47;;;2.60;99.90;1.70;99248;;;;573087;246;24163;-81
2022/04/04 04:15:33;;;;;;;3.23;2.57;;;2.70;99.90;1.70;99248;;;;573044;246;24180;-81
2022/04/04 04:18:01;;;;;;;5.70;2.80;;;2.70;99.90;1.80;99239;;;;573069;246;24114;-83
2022/04/04 04:20:34;;;;;;;3.37;2.23;;;2.80;99.90;1.80;99242;;;;573071;246;24116;-83
2022/04/04 04:22:57;;;;;;;2.70;2.50;;;2.80;99.90;1.80;99229;;;;572577;246;24141;-83
2022/04/04 04:25:27;;;;;;;2.10;1.90;;;2.80;99.90;1.80;99240;;;;569807;250;24160;-80
2022/04/04 04:27:52;;;;;;;3.13;2.43;;;2.80;99.90;1.80;99233;;;;580987;245;24093;-80
2022/04/04 04:30:20;;;;;;;5.40;2.50;;;2.80;99.90;1.70;99233;;;;567846;249;25155;-82
2022/04/04 04:32:48;;;;;;;2.67;2.13;;;2.70;99.90;1.70;99229;;;;571322;249;24071;-81
2022/04/04 04:35:19;;;;;;;2.83;2.63;;;2.70;99.90;1.80;99228;;;;567850;249;24105;-81
2022/04/04 04:37:44;;;;;;;2.80;2.20;;;2.70;99.90;1.80;99218;;;;564754;249;24175;-81
2022/04/04 04:40:13;;;;;;;3.80;2.63;;;2.80;99.90;1.80;99215;;;;567737;249;24222;-80
2022/04/04 04:42:41;;;;;;;2.47;2.27;;;2.80;99.90;1.80;99206;;;;581137;245;24241;-79
2022/04/04 04:45:08;;;;;;;4.30;2.50;;;2.80;99.90;1.90;99207;;;;578498;244;24118;-80
2022/04/04 04:47:37;;;;;;;4.80;4.30;;;2.90;99.90;1.90;99206;;;;573026;244;35300;-81
2022/04/04 04:50:04;;;;;;;4.73;3.30;;;2.90;99.90;1.90;99203;;;;576393;245;24112;-81
2022/04/04 04:52:33;;;;;;;6.03;3.30;;;3.00;99.90;2.00;99202;;;;576557;245;24089;-81
2022/04/04 04:55:01;;;;;;;3.80;3.50;;;3.00;99.90;2.10;99206;;;;576202;245;24087;-80
2022/04/04 04:57:32;;;;;;;4.23;3.83;;;3.00;99.90;2.10;99195;;;;585250;245;24087;-81
2022/04/04 04:59:57;;;;;;;4.83;3.10;;;3.10;99.90;2.20;99191;;;;584943;245;24105;-79
2022/04/04 05:02:24;;;;;;;4.87;3.17;;;3.20;99.90;2.20;99195;;;;576195;245;24189;-81
2022/04/04 05:04:53;;;;;;;5.03;3.50;;;3.20;99.90;2.30;99186;;;;576225;245;24125;-80
2022/04/04 05:07:21;;;;;;;4.40;3.47;;;3.20;99.90;2.40;99186;;;;576232;245;24083;-81
2022/04/04 05:09:50;;;;;;;4.13;3.53;;;3.40;99.90;2.40;99182;;;;576178;245;24151;-80
2022/04/04 05:12:18;;;;;;;2.07;1.93;;;3.40;99.90;2.50;99184;;;;576157;245;24135;-83
2022/04/04 05:14:45;;;;;;;3.27;3.00;;;3.50;99.90;2.50;99174;;;;576181;245;24103;-78
2022/04/04 05:17:13;;;;;;;3.23;2.83;;;3.50;99.90;2.60;99178;;;;576256;245;24167;-81
2022/04/04 05:19:41;;;;;;;5.20;3.30;;;3.50;99.90;2.60;99178;;;;576139;245;24075;-82
2022/04/04 05:22:10;;;;;;;2.70;2.50;;;3.60;99.90;2.70;99176;;;;576003;245;24116;-80
2022/04/04 05:24:38;;;;;;;2.90;2.70;;;3.60;99.90;2.80;99180;;;;575961;245;24218;-79
2022/04/04 05:27:06;;;;;;;2.53;2.33;;;3.80;99.90;2.80;99167;;;;575760;245;24112;-80
2022/04/04 05:29:34;;;;;;;3.20;2.90;;;3.80;99.90;2.80;99179;;;;575948;245;24090;-78
2022/04/04 05:32:02;;;;;;;3.10;2.80;;;3.80;99.90;2.90;99176;;;;576096;245;24157;-78
2022/04/04 05:34:30;;;;;;;3.53;3.23;;;3.80;99.90;2.90;99177;;;;576085;245;24123;-77
2022/04/04 05:36:57;;;;;;;2.70;2.50;;;3.80;99.90;3.00;99182;;;;576020;245;24127;-79
2022/04/04 05:39:25;;;;;;;3.23;2.97;;;3.90;99.90;3.00;99172;;;;576066;245;24101;-78
2022/04/04 05:41:53;;;;;;;4.70;1.97;;;4.00;99.90;3.00;99170;;;;578309;242;24045;-81
2022/04/04 05:44:21;;;;;;;2.97;2.53;;;4.00;99.90;3.10;99163;;;;587251;242;25309;-80
2022/04/04 05:46:49;;;;;;;2.73;2.53;;;4.00;99.90;3.10;99166;;;;586882;242;24037;-80
2022/04/04 05:49:18;;;;;;;2.30;1.80;;;4.10;99.90;3.20;99164;;;;586980;241;24117;-79
2022/04/04 05:51:45;;;;;;;4.70;3.23;;;4.10;99.90;3.30;99175;;;;586928;242;24085;-80
2022/04/04 05:54:14;;;;;;;2.53;2.33;;;4.20;99.90;3.40;99154;;;;587167;242;25064;-81
2022/04/04 05:56:40;;;;;;;3.43;3.13;;;4.30;99.90;3.40;99155;;;;588824;241;24063;-82
2022/04/04 05:59:09;;;;;;;3.43;2.70;;;4.40;99.90;3.40;99156;;;;590482;241;24078;-83
2022/04/04 06:01:37;;;;;;;3.37;2.90;;;4.40;99.90;3.50;99159;;;;588421;241;24084;-81
2022/04/04 06:04:05;;;;;;;3.00;2.60;;;4.40;99.90;3.60;99150;;;;588302;241;24034;-80
2022/04/04 06:06:33;;;;;;;1.93;1.77;;;4.50;99.90;3.70;99145;;;;588052;241;24015;-80
2022/04/04 06:09:01;;;;;;;1.93;1.83;;;4.60;99.90;3.80;99147;;;;587698;241;24019;-80
2022/04/04 06:11:29;;;;;;;1.90;1.77;;;4.80;99.90;3.80;99139;;;;589713;241;24045;-79
2022/04/04 06:13:58;;;;;;;2.50;2.30;;;4.70;99.90;4.00;99141;;;;587876;241;24106;-81
2022/04/04 06:16:29;;;;;;;2.47;2.00;;;5.00;99.90;4.10;99122;;;;596847;240;24051;-80
2022/04/04 06:18:54;;;;;;;2.70;1.93;;;4.90;99.90;4.10;99137;;;;587522;241;24070;-80
2022/04/04 06:21:22;;;;;;;1.60;1.50;;;4.90;99.90;4.20;99130;;;;587381;241;24051;-79
2022/04/04 06:23:50;;;;;;;2.93;1.60;;;5.10;99.90;4.20;99141;;;;587260;241;24119;-81
2022/04/04 06:26:18;;;;;;;1.60;1.50;;;5.10;99.90;4.20;99128;;;;587366;241;24491;-79
2022/04/04 06:28:45;;;;;;;2.00;1.90;;;5.10;99.90;4.30;99130;;;;587096;241;24036;-79
2022/04/04 06:31:13;;;;;;;1.80;1.70;;;5.10;99.90;4.20;99121;;;;587413;242;24104;-81
2022/04/04 06:33:41;;;;;;;1.50;1.40;;;5.10;99.90;4.00;99133;;;;587747;242;24034;-80
2022/04/04 06:36:09;;;;;;;2.10;1.90;;;5.00;99.90;3.90;99138;;;;587513;242;24075;-83
2022/04/04 06:38:37;;;;;;;1.30;1.20;;;4.80;99.90;3.80;99123;;;;582376;242;24044;-78
2022/04/04 06:41:05;;;;;;;2.53;1.40;;;4.70;99.90;3.70;99130;;;;591888;240;24077;-80
2022/04/04 06:43:34;;;;;;;1.60;1.50;;;4.60;99.90;3.70;99129;;;;585085;240;24122;-80
2022/04/04 06:46:02;;;;;;;1.80;1.70;;;4.50;99.90;3.80;99124;;;;589933;240;24076;-80
2022/04/04 06:48:30;;;;;;;1.30;1.20;;;4.60;99.90;3.90;99121;;;;590079;240;24068;-82
2022/04/04 06:50:59;;;;;;;1.30;1.13;;;4.70;99.90;3.90;99115;;;;589824;240;24098;-77
2022/04/04 06:53:25;;;;;;;1.97;1.87;;;4.70;99.90;4.00;99130;;;;589293;240;24062;-77
2022/04/04 06:55:53;;;;;;;1.63;1.30;;;4.80;99.90;4.30;99114;;;;589636;240;24126;-86
2022/04/04 06:58:21;;;;;;;1.77;1.67;;;5.10;99.90;4.60;99114;;;;589213;240;24063;-79
2022/04/04 07:00:49;;;;;;;1.70;1.60;;;5.40;99.90;4.90;99117;;;;588722;240;24123;-79
2022/04/04 07:03:17;;;;;;;1.93;1.83;;;5.70;99.90;5.30;99119;;;;584062;241;24093;-79
2022/04/04 07:05:46;;;;;;;1.60;1.50;;;6.00;99.90;5.50;99100;;;;576412;244;24086;-81
2022/04/04 07:08:14;;;;;;;2.77;2.00;;;6.30;99.90;5.80;99104;;;;579648;244;24098;-81
2022/04/04 07:10:43;;;;;;;1.80;1.70;;;6.60;99.90;6.20;99113;;;;589560;244;24121;-80
2022/04/04 07:13:11;;;;;;;1.83;1.73;;;7.00;99.90;6.80;99117;;;;589249;244;24062;-78
2022/04/04 07:15:41;;;;;;;2.53;1.80;;;7.50;99.90;7.50;99112;;;;588781;244;24098;-81
2022/04/04 07:18:07;;;;;;;2.17;2.03;;;8.10;99.90;7.80;99104;;;;588548;244;24069;-80
2022/04/04 07:20:35;;;;;;;1.90;1.80;;;8.80;99.90;7.90;99103;;;;588651;244;24105;-79
2022/04/04 07:23:03;;;;;;;2.43;2.33;;;8.80;99.90;7.90;99105;;;;588561;244;24075;-79
2022/04/04 07:25:31;;;;;;;1.40;1.37;;;8.80;99.90;7.90;99118;;;;582835;244;24123;-79
2022/04/04 07:27:59;;;;;;;3.67;1.80;;;8.80;99.90;8.00;99090;;;;573700;241;24155;-79
2022/04/04 07:30:27;;;;;;;3.00;1.87;;;8.90;99.90;8.10;99101;;;;584282;241;24075;-80
2022/04/04 07:32:55;;;;;;;1.90;1.80;;;9.00;99.90;8.00;99107;;;;577374;244;24069;-80
2022/04/04 07:35:24;;;;;;;1.97;1.70;;;9.00;99.90;7.90;99103;;;;578132;247;24120;-82
2022/04/04 07:37:55;;;;;;;2.10;2.00;;;8.80;99.90;8.00;99105;;;;577582;248;24179;-80
2022/04/04 07:40:23;;;;;;;3.00;1.90;;;8.90;99.90;8.10;99096;;;;577742;244;24089;-79
2022/04/04 07:42:51;;;;;;;1.97;1.87;;;8.90;99.90;8.30;99089;;;;579006;245;24160;-81
2022/04/04 07:45:19;;;;;;;2.20;2.10;;;9.10;99.90;8.40;99099;;;;577393;244;24067;-80
2022/04/04 07:47:47;;;;;;;2.60;2.07;;;9.20;99.90;8.60;99089;;;;569293;248;25123;-78
2022/04/04 07:50:15;;;;;;;2.20;2.00;;;9.40;99.90;8.60;99103;;;;566691;247;24157;-79
2022/04/04 07:52:42;;;;;;;2.60;2.40;;;9.50;99.90;8.30;99101;;;;570172;247;24080;-80
2022/04/04 07:55:12;;;;;;;2.93;2.20;;;9.30;99.90;8.20;99082;;;;581346;247;24135;-78
2022/04/04 07:57:42;;;;;;;2.17;1.93;;;9.20;99.90;7.90;99102;;;;575573;242;24050;-80
2022/04/04 08:00:08;;;;;;;3.30;2.10;;;8.90;99.90;7.50;99094;;;;572368;247;24089;-79
2022/04/04 08:02:35;;;;;;;1.97;1.77;;;8.60;99.90;7.10;99078;;;;570307;249;24123;-79
2022/04/04 08:05:08;;;;;;;5.13;2.10;;;7.90;99.90;6.80;99102;;;;566732;246;24069;-82
2022/04/04 08:07:40;;;;;;;3.57;2.13;;;7.60;99.90;6.60;99093;;;;584147;242;24030;-80
2022/04/04 08:10:06;;;;;;;2.90;2.60;;;7.60;99.90;6.40;99090;;;;583523;242;24162;-77
2022/04/04 08:12:32;;;;;;;2.40;2.20;;;7.20;99.90;6.40;99089;;;;572782;247;24123;-76
2022/04/04 08:15:00;;;;;;;3.27;2.27;;;7.20;99.90;6.30;99088;;;;592796;242;24017;-76
2022/04/04 08:17:28;;;;;;;2.13;2.03;;;7.20;99.90;6.30;99091;;;;573320;247;24169;-86
2022/04/04 08:19:56;;;;;;;3.23;2.80;;;7.20;99.90;6.30;99086;;;;585450;241;24035;-84
2022/04/04 08:22:24;;;;;;;2.73;2.53;;;7.20;99.90;6.10;99073;;;;573682;246;24101;-85
2022/04/04 08:24:52;;;;;;;2.77;2.57;;;6.90;99.90;5.90;99088;;;;584592;242;24126;-84
2022/04/04 08:27:22;;;;;;;5.83;3.07;;;6.80;99.90;5.80;99086;;;;573337;247;24105;-82
2022/04/04 08:29:52;;;;;;;3.83;2.70;;;6.80;99.90;5.90;99076;;;;585723;241;24113;-84
2022/04/04 08:32:17;;;;;;;2.33;2.13;;;6.70;99.90;6.20;99070;;;;578584;246;24089;-84
2022/04/04 08:34:45;;;;;;;6.67;2.47;;;7.00;99.90;6.50;99065;;;;585836;241;24036;-78
2022/04/04 08:37:13;;;;;;;4.60;2.73;;;7.20;99.90;6.70;99068;;;;577355;245;24085;-81
2022/04/04 08:39:44;;;;;;;2.80;2.60;;;7.50;99.90;7.10;99052;;;;585084;241;24055;-82
2022/04/04 08:42:08;;;;;;;2.87;2.07;;;7.80;99.90;7.80;99054;;;;584915;241;24041;-79
2022/04/04 08:44:37;;;;;;;3.87;2.57;;;8.40;99.90;8.60;99052;;;;577146;245;24167;-79
2022/04/04 08:47:04;;;;;;;4.50;2.37;;;9.20;99.90;9.30;99053;;;;582779;242;23998;-82
2022/04/04 08:49:32;;;;;;;2.80;2.50;;;10.00;99.90;10.50;99037;;;;572855;247;24139;-83
2022/04/04 08:52:00;;;;;;;4.43;2.30;;;11.00;99.90;11.80;99048;;;;581546;247;24118;-86
2022/04/04 08:54:28;;;;;;;3.17;2.30;;;12.30;99.90;12.30;99039;;;;572769;247;24148;-81
2022/04/04 08:56:57;;;;;;;6.93;2.23;;;13.20;94.90;12.40;99031;;;;572405;247;24093;-85
2022/04/04 08:59:25;;;;;;;10.17;2.40;;;13.20;94.90;12.30;99030;;;;572335;247;24099;-81
2022/04/04 09:01:53;;;;;;;2.20;1.97;;;13.30;92.20;12.10;99029;;;;572231;247;24086;-80
2022/04/04 09:04:20;;;;;;;2.17;1.97;;;13.20;91.40;12.60;99032;;;;583389;242;24075;-82
2022/04/04 09:06:57;;;;;;;2.80;2.00;;;13.60;87.80;12.80;99024;;;;566114;249;24102;-83
2022/04/04 09:09:26;;;;;;;3.37;2.00;;;13.60;87.80;13.30;99010;;;;578704;240;24069;-85
2022/04/04 09:11:54;;;;;;;1.80;1.70;;;14.10;85.70;14.30;99008;;;;583685;242;24053;-80
2022/04/04 09:14:23;;;;;;;1.80;1.70;;;15.00;81.00;14.50;99002;;;;573091;246;24091;-80
2022/04/04 09:16:56;;;;;;;1.60;1.37;;;15.40;74.60;14.50;99012;;;;577003;245;24113;-85
2022/04/04 09:19:27;;;;;;;1.80;1.70;;;15.40;74.50;14.60;99006;;;;584703;242;24042;-81
2022/04/04 09:21:58;;;;;;;5.20;1.90;;;15.60;73.00;14.80;98998;;;;577166;245;24057;-83
2022/04/04 09:24:23;;;;;;;2.27;1.70;;;15.70;71.90;15.20;99004;;;;584632;242;24069;-82
2022/04/04 09:26:55;;;;;;;6.60;2.60;;;16.00;71.90;15.20;98991;;;;576075;245;24101;-81
2022/04/04 09:29:22;;;;;;;4.07;1.87;;;16.20;68.90;15.30;98996;;;;589245;239;24074;-81
2022/04/04 09:31:59;;;;;;;3.00;1.80;;;16.20;69.20;16.00;98982;;;;571828;247;24098;-80
2022/04/04 09:34:27;;;;;;;2.50;2.23;;;16.80;67.80;16.60;98993;;;;570729;248;24105;-80
2022/04/04 09:36:56;;;;;;;4.93;1.87;;;18.00;62.00;17.20;98980;;;;569856;249;24248;-83
2022/04/04 09:39:27;;;;;;;2.50;1.50;;;18.10;59.20;17.20;98983;;;;577752;247;24119;-80
2022/04/04 09:41:52;;;;;;;2.33;1.70;;;18.10;59.20;17.50;98976;;;;567036;249;24136;-80
2022/04/04 09:44:20;;;;;;;2.00;1.60;;;18.40;59.70;16.70;98969;;;;573279;246;24117;-83
2022/04/04 09:46:48;;;;;;;1.90;1.20;;;18.10;57.90;16.20;98970;;;;577162;245;24140;-80
2022/04/04 09:49:16;;;;;;;1.67;1.57;;;17.50;59.00;15.30;98949;;;;568887;249;24087;-80
2022/04/04 09:51:46;;;;;;;3.77;1.57;;;16.80;59.10;15.00;98961;;;;566061;249;24109;-80
2022/04/04 09:54:14;;;;;;;2.13;1.43;;;16.30;60.70;15.40;98960;;;;567992;246;24127;-81
2022/04/04 09:56:42;;;;;;;3.20;2.03;;;16.40;62.10;15.90;98956;;;;569657;249;24160;-80
2022/04/04 09:59:14;;;;;;;4.17;1.20;;;16.80;61.00;15.90;98945;;;;586941;241;24067;-79
2022/04/04 10:01:41;;;;;;;1.93;1.40;;;16.90;58.90;15.20;98936;;;;572233;245;24153;-80
2022/04/04 10:04:12;;;;;;;1.13;1.10;;;16.50;58.90;15.00;98936;;;;572902;247;24075;-80
2022/04/04 10:06:37;;;;;;;13.10;1.77;;;16.20;59.50;14.70;98939;;;;572078;247;24088;-80
2022/04/04 10:09:09;;;;;;;1.30;1.20;;;15.60;59.90;14.40;98924;;;;572796;247;24059;-81
2022/04/04 10:11:36;;;;;;;4.47;1.33;;;15.60;59.90;14.30;98920;;;;572737;247;24059;-79
2022/04/04 10:14:04;;;;;;;2.00;1.37;;;15.50;59.80;14.10;98921;;;;567970;247;56815;-80
2022/04/04 10:16:33;;;;;;;3.42;1.62;;;15.20;60.10;14.00;98916;;;;568856;245;35183;-82
2022/04/04 10:19:00;;;;;;;3.83;1.40;;;15.00;62.00;13.80;98905;;;;572069;250;24205;-81
2022/04/04 10:21:27;;;;;;;2.87;1.37;;;14.80;61.20;13.00;98891;;;;565640;250;24108;-79
2022/04/04 10:23:58;;;;;;;4.80;1.50;;;14.20;61.60;12.50;98901;;;;575046;249;24147;-82
2022/04/04 10:26:32;;;;;;;6.17;1.63;;;13.60;63.70;12.40;98896;;;;577044;245;24072;-85
2022/04/04 10:29:12;;;;;;;2.97;1.20;;;13.30;64.70;12.00;98884;;;;567997;247;24089;-82
2022/04/04 10:31:51;;;;;;;1.90;1.40;;;12.90;64.50;11.70;98876;;;;555970;252;24197;-81
2022/04/04 10:34:22;;;;;;;5.13;1.50;;;12.60;65.80;11.80;98870;;;;556057;254;24130;-84
2022/04/04 10:36:56;;;;;;;15.33;2.10;;;12.60;65.10;11.80;98855;;;;557926;247;24060;-80
2022/04/04 10:39:44;;;;;;;2.93;1.43;;;12.60;65.00;11.60;98857;;;;576848;245;24094;-83
2022/04/04 10:42:28;;;;;;;2.73;1.40;;;12.40;65.10;11.40;98859;;;;583953;241;24012;-82
2022/04/04 10:45:08;;;;;;;2.80;1.43;;;12.20;64.80;11.30;98836;;;;584867;242;24010;-82
2022/04/04 10:47:42;;;;;;;7.77;1.50;;;12.20;65.00;11.40;98841;;;;593561;242;24088;-82
2022/04/04 10:50:28;;;;;;;4.17;1.20;;;12.10;65.10;11.30;98839;;;;578814;243;24057;-82
2022/04/04 10:52:57;;;;;;;2.60;1.03;;;12.10;65.10;11.30;98828;;;;567103;248;24115;-80
2022/04/04 10:55:25;;;;;;;2.43;0.97;;;12.00;65.30;11.30;98846;;;;579288;247;24125;-78
2022/04/04 10:57:53;;;;;;;2.20;1.20;;;12.00;66.20;11.40;98844;;;;568248;247;24043;-81
2022/04/04 11:00:20;;;;;;;2.40;1.20;;;12.10;65.20;11.10;98829;;;;574187;245;24101;-79
2022/04/04 11:02:49;;;;;;;3.30;1.10;;;11.80;65.40;11.00;98825;;;;573814;249;24076;-84
2022/04/04 11:08:06;;;;;;;3.43;1.40;;;11.60;66.20;10.90;98817;;;;556577;254;24114;-85
2022/04/04 11:10:47;;;;;;;3.17;1.40;;;11.60;66.60;11.00;98805;;;;555680;254;24098;-81
2022/04/04 11:13:13;;;;;;;3.27;1.47;;;11.70;66.60;11.10;98795;;;;562153;254;24129;-82
2022/04/04 11:15:47;;;;;;;2.67;1.43;;;11.80;66.70;11.10;98800;;;;585392;243;24059;-78
2022/04/04 11:18:13;;;;;;;1.80;1.43;;;12.00;66.80;11.30;98771;;;;571986;247;24071;-82
2022/04/04 11:20:53;;;;;;;2.10;1.20;;;12.00;66.20;11.30;98772;;;;566336;247;24066;-82
2022/04/04 11:23:23;;;;;;;4.93;1.37;;;12.00;66.20;11.40;98779;;;;571737;247;24125;-80
2022/04/04 11:25:52;;;;;;;2.20;1.23;;;12.20;66.50;11.60;98771;;;;571518;247;24113;-79
2022/04/04 11:28:22;;;;;;;2.23;1.87;;;12.40;65.90;11.70;98770;;;;572660;247;24091;-79
2022/04/04 11:30:50;;;;;;;1.63;1.10;;;12.40;65.80;11.80;98766;;;;566731;247;24106;-84
2022/04/04 11:33:22;;;;;;;1.77;1.07;;;12.50;63.70;11.60;98740;;;;571105;247;24105;-78
2022/04/04 11:35:46;;;;;;;1.00;0.90;;;12.50;62.50;11.30;98744;;;;580531;247;24121;-81
2022/04/04 11:38:17;;;;;;;1.10;1.00;;;12.20;63.20;11.10;98739;;;;580053;247;24104;-82